sensor_id;sensor_type;location;lat;lon;timestamp;temperature;humidity
8666;DHT22;4370;48.916;8.380;2023-11-21T00:00:52;8.90;99.90
8666;DHT22;4370;48.916;8.380;2023-11-21T00:03:18;9.00;99.90
8666;DHT22;4370;48.916;8.380;2023-11-21T00:05:46;9.10;99.90
8666;DHT22;4370;48.916;8.380;2023-11-21T00:08:14;8.80;99.90
8666;DHT22;4370;48.916;8.380;2023-11-21T00:13:07;9.30;99.90
8666;DHT22;4370;48.916;8.380;2023-11-21T00:15:34;8.80;99.90
8666;DHT22;4370;48.916;8.380;2023-11-21T00:18:00;8.90;99.90
8666;DHT22;4370;48.916;8.380;2023-11-21T00:20:27;9.30;99.90
8666;DHT22;4370;48.916;8.380;2023-11-21T00:22:52;9.00;99.90
8666;DHT22;4370;48.916;8.380;2023-11-21T00:25:18;8.90;99.90
8666;DHT22;4370;48.916;8.380;2023-11-21T00:32:37;9.10;99.90
8666;DHT22;4370;48.916;8.380;2023-11-21T00:35:03;9.70;99.90
8666;DHT22;4370;48.916;8.380;2023-11-21T00:37:29;9.20;99.90
8666;DHT22;4370;48.916;8.380;2023-11-21T00:39:54;9.00;99.90
8666;DHT22;4370;48.916;8.380;2023-11-21T00:47:12;9.10;99.90
8666;DHT22;4370;48.916;8.380;2023-11-21T00:49:38;8.90;99.90
8666;DHT22;4370;48.916;8.380;2023-11-21T00:52:04;9.30;99.90
8666;DHT22;4370;48.916;8.380;2023-11-21T00:54:31;9.60;99.90
8666;DHT22;4370;48.916;8.380;2023-11-21T00:56:57;9.30;99.90
8666;DHT22;4370;48.916;8.380;2023-11-21T01:01:49;9.10;99.90
8666;DHT22;4370;48.916;8.380;2023-11-21T01:04:15;9.10;99.90
8666;DHT22;4370;48.916;8.380;2023-11-21T01:06:40;9.20;99.90
8666;DHT22;4370;48.916;8.380;2023-11-21T01:09:07;9.30;99.90
8666;DHT22;4370;48.916;8.380;2023-11-21T01:11:35;9.70;99.90
8666;DHT22;4370;48.916;8.380;2023-11-21T01:14:03;9.00;99.90
8666;DHT22;4370;48.916;8.380;2023-11-21T01:16:29;9.30;99.90
8666;DHT22;4370;48.916;8.380;2023-11-21T01:28:45;9.10;99.90
8666;DHT22;4370;48.916;8.380;2023-11-21T01:36:04;8.80;99.90
8666;DHT22;4370;48.916;8.380;2023-11-21T01:43:28;9.20;99.90
8666;DHT22;4370;48.916;8.380;2023-11-21T01:48:23;9.20;99.90
8666;DHT22;4370;48.916;8.380;2023-11-21T01:50:49;9.10;99.90
8666;DHT22;4370;48.916;8.380;2023-11-21T01:53:15;9.00;99.90
8666;DHT22;4370;48.916;8.380;2023-11-21T01:55:42;9.00;99.90
8666;DHT22;4370;48.916;8.380;2023-11-21T01:58:09;9.00;99.90
8666;DHT22;4370;48.916;8.380;2023-11-21T02:10:22;9.20;99.90
8666;DHT22;4370;48.916;8.380;2023-11-21T02:17:49;8.90;99.90
8666;DHT22;4370;48.916;8.380;2023-11-21T02:20:20;8.90;99.90
8666;DHT22;4370;48.916;8.380;2023-11-21T02:22:55;8.90;99.90
8666;DHT22;4370;48.916;8.380;2023-11-21T02:25:29;8.70;99.90
8666;DHT22;4370;48.916;8.380;2023-11-21T02:27:57;8.80;99.90
8666;DHT22;4370;48.916;8.380;2023-11-21T02:30:23;8.60;99.90
8666;DHT22;4370;48.916;8.380;2023-11-21T02:32:50;8.90;99.90
8666;DHT22;4370;48.916;8.380;2023-11-21T02:35:19;8.70;99.90
8666;DHT22;4370;48.916;8.380;2023-11-21T02:40:12;8.80;99.90
8666;DHT22;4370;48.916;8.380;2023-11-21T02:42:41;8.40;99.90
8666;DHT22;4370;48.916;8.380;2023-11-21T02:45:07;8.30;99.90
8666;DHT22;4370;48.916;8.380;2023-11-21T02:47:38;8.50;99.90
8666;DHT22;4370;48.916;8.380;2023-11-21T02:50:04;8.40;99.90
8666;DHT22;4370;48.916;8.380;2023-11-21T02:57:24;8.60;99.90
8666;DHT22;4370;48.916;8.380;2023-11-21T02:59:50;8.60;99.90
8666;DHT22;4370;48.916;8.380;2023-11-21T03:07:09;8.20;99.90
8666;DHT22;4370;48.916;8.380;2023-11-21T03:09:35;8.60;99.90
8666;DHT22;4370;48.916;8.380;2023-11-21T03:12:00;7.20;99.90
8666;DHT22;4370;48.916;8.380;2023-11-21T03:14:26;8.10;99.90
8666;DHT22;4370;48.916;8.380;2023-11-21T03:19:18;8.40;99.90
8666;DHT22;4370;48.916;8.380;2023-11-21T03:24:09;8.50;99.90
8666;DHT22;4370;48.916;8.380;2023-11-21T03:26:35;8.50;99.90
8666;DHT22;4370;48.916;8.380;2023-11-21T03:29:02;8.30;99.90
8666;DHT22;4370;48.916;8.380;2023-11-21T03:33:54;8.50;99.90
8666;DHT22;4370;48.916;8.380;2023-11-21T03:46:06;8.10;99.90
8666;DHT22;4370;48.916;8.380;2023-11-21T03:48:32;8.00;99.90
8666;DHT22;4370;48.916;8.380;2023-11-21T03:53:26;8.20;99.90
8666;DHT22;4370;48.916;8.380;2023-11-21T03:55:51;8.00;99.90
8666;DHT22;4370;48.916;8.380;2023-11-21T03:58:19;7.90;99.90
8666;DHT22;4370;48.916;8.380;2023-11-21T04:00:46;8.30;99.90
8666;DHT22;4370;48.916;8.380;2023-11-21T04:03:15;8.00;99.90
8666;DHT22;4370;48.916;8.380;2023-11-21T04:10:34;8.20;99.90
8666;DHT22;4370;48.916;8.380;2023-11-21T04:13:00;8.00;99.90
8666;DHT22;4370;48.916;8.380;2023-11-21T04:20:17;8.30;99.90
8666;DHT22;4370;48.916;8.380;2023-11-21T04:22:45;8.30;99.90
8666;DHT22;4370;48.916;8.380;2023-11-21T04:25:13;8.20;99.90
8666;DHT22;4370;48.916;8.380;2023-11-21T04:27:40;8.30;99.90
8666;DHT22;4370;48.916;8.380;2023-11-21T04:30:06;8.40;99.90
8666;DHT22;4370;48.916;8.380;2023-11-21T04:32:31;8.50;99.90
8666;DHT22;4370;48.916;8.380;2023-11-21T04:34:57;8.50;99.90
8666;DHT22;4370;48.916;8.380;2023-11-21T04:37:23;8.00;99.90
8666;DHT22;4370;48.916;8.380;2023-11-21T04:39:49;8.10;99.90
8666;DHT22;4370;48.916;8.380;2023-11-21T04:42:15;8.20;99.90
8666;DHT22;4370;48.916;8.380;2023-11-21T04:44:40;8.70;99.90
8666;DHT22;4370;48.916;8.380;2023-11-21T04:47:08;8.50;99.90
8666;DHT22;4370;48.916;8.380;2023-11-21T04:49:35;8.10;99.90
8666;DHT22;4370;48.916;8.380;2023-11-21T04:52:00;8.30;99.90
8666;DHT22;4370;48.916;8.380;2023-11-21T04:54:27;8.00;99.90
8666;DHT22;4370;48.916;8.380;2023-11-21T04:59:18;8.30;99.90
8666;DHT22;4370;48.916;8.380;2023-11-21T05:01:44;8.80;99.90
8666;DHT22;4370;48.916;8.380;2023-11-21T05:04:10;8.60;99.90
8666;DHT22;4370;48.916;8.380;2023-11-21T05:11:28;8.40;99.90
8666;DHT22;4370;48.916;8.380;2023-11-21T05:16:26;8.60;99.90
8666;DHT22;4370;48.916;8.380;2023-11-21T05:21:21;8.50;99.90
8666;DHT22;4370;48.916;8.380;2023-11-21T05:23:47;8.30;99.90
8666;DHT22;4370;48.916;8.380;2023-11-21T05:31:05;8.60;99.90
8666;DHT22;4370;48.916;8.380;2023-11-21T05:33:31;8.20;99.90
8666;DHT22;4370;48.916;8.380;2023-11-21T05:38:25;8.50;99.90
8666;DHT22;4370;48.916;8.380;2023-11-21T05:40:51;8.50;99.90
8666;DHT22;4370;48.916;8.380;2023-11-21T05:43:18;8.20;99.90
8666;DHT22;4370;48.916;8.380;2023-11-21T05:45:43;8.60;99.90
8666;DHT22;4370;48.916;8.380;2023-11-21T05:48:10;8.60;99.90
8666;DHT22;4370;48.916;8.380;2023-11-21T05:50:36;8.40;99.90
8666;DHT22;4370;48.916;8.380;2023-11-21T05:55:30;8.90;99.90
8666;DHT22;4370;48.916;8.380;2023-11-21T05:57:57;8.70;99.90
8666;DHT22;4370;48.916;8.380;2023-11-21T06:02:52;8.70;99.90
8666;DHT22;4370;48.916;8.380;2023-11-21T06:05:23;8.60;99.90
8666;DHT22;4370;48.916;8.380;2023-11-21T06:07:51;8.50;99.90
8666;DHT22;4370;48.916;8.380;2023-11-21T06:10:19;8.40;99.90
8666;DHT22;4370;48.916;8.380;2023-11-21T06:12:46;8.50;99.90
8666;DHT22;4370;48.916;8.380;2023-11-21T06:15:13;8.40;99.90
8666;DHT22;4370;48.916;8.380;2023-11-21T06:20:06;8.40;99.90
8666;DHT22;4370;48.916;8.380;2023-11-21T06:27:32;8.40;99.90
8666;DHT22;4370;48.916;8.380;2023-11-21T06:29:58;8.50;99.90
8666;DHT22;4370;48.916;8.380;2023-11-21T06:37:20;8.60;99.90
8666;DHT22;4370;48.916;8.380;2023-11-21T06:39:50;8.20;99.90
8666;DHT22;4370;48.916;8.380;2023-11-21T06:42:18;8.50;99.90
8666;DHT22;4370;48.916;8.380;2023-11-21T06:44:46;8.60;99.90
8666;DHT22;4370;48.916;8.380;2023-11-21T06:47:12;8.60;99.90
8666;DHT22;4370;48.916;8.380;2023-11-21T06:52:04;8.20;99.90
8666;DHT22;4370;48.916;8.380;2023-11-21T06:54:33;8.40;99.90
8666;DHT22;4370;48.916;8.380;2023-11-21T06:56:59;8.40;99.90
8666;DHT22;4370;48.916;8.380;2023-11-21T07:01:51;8.40;99.90
8666;DHT22;4370;48.916;8.380;2023-11-21T07:06:44;8.50;99.90
8666;DHT22;4370;48.916;8.380;2023-11-21T07:09:09;8.30;99.90
8666;DHT22;4370;48.916;8.380;2023-11-21T07:11:37;8.50;99.90
8666;DHT22;4370;48.916;8.380;2023-11-21T07:16:36;8.10;99.90
8666;DHT22;4370;48.916;8.380;2023-11-21T07:19:07;8.50;99.90
8666;DHT22;4370;48.916;8.380;2023-11-21T07:21:36;8.50;99.90
8666;DHT22;4370;48.916;8.380;2023-11-21T07:24:03;8.10;99.90
8666;DHT22;4370;48.916;8.380;2023-11-21T07:26:30;8.50;99.90
8666;DHT22;4370;48.916;8.380;2023-11-21T07:31:22;8.40;99.90
8666;DHT22;4370;48.916;8.380;2023-11-21T07:33:48;8.30;99.90
8666;DHT22;4370;48.916;8.380;2023-11-21T07:36:17;8.70;99.90
8666;DHT22;4370;48.916;8.380;2023-11-21T07:41:17;8.50;99.90
8666;DHT22;4370;48.916;8.380;2023-11-21T07:43:45;8.30;99.90
8666;DHT22;4370;48.916;8.380;2023-11-21T07:46:12;8.40;99.90
8666;DHT22;4370;48.916;8.380;2023-11-21T07:48:42;8.80;99.90
8666;DHT22;4370;48.916;8.380;2023-11-21T07:51:09;8.70;99.90
8666;DHT22;4370;48.916;8.380;2023-11-21T07:53:35;8.70;99.90
8666;DHT22;4370;48.916;8.380;2023-11-21T07:56:08;8.50;99.90
8666;DHT22;4370;48.916;8.380;2023-11-21T07:58:36;8.60;99.90
8666;DHT22;4370;48.916;8.380;2023-11-21T08:01:04;8.20;99.90
8666;DHT22;4370;48.916;8.380;2023-11-21T08:03:31;8.50;99.90
8666;DHT22;4370;48.916;8.380;2023-11-21T08:06:02;8.70;99.90
8666;DHT22;4370;48.916;8.380;2023-11-21T08:08:34;8.70;99.90
8666;DHT22;4370;48.916;8.380;2023-11-21T08:11:00;8.40;99.90
8666;DHT22;4370;48.916;8.380;2023-11-21T08:13:31;8.70;99.90
8666;DHT22;4370;48.916;8.380;2023-11-21T08:15:58;8.50;99.90
8666;DHT22;4370;48.916;8.380;2023-11-21T08:18:27;9.00;99.90
8666;DHT22;4370;48.916;8.380;2023-11-21T08:21:08;8.40;99.90
8666;DHT22;4370;48.916;8.380;2023-11-21T08:26:00;8.70;99.90
8666;DHT22;4370;48.916;8.380;2023-11-21T08:28:29;8.70;99.90
8666;DHT22;4370;48.916;8.380;2023-11-21T08:30:58;8.20;99.90
8666;DHT22;4370;48.916;8.380;2023-11-21T08:33:26;8.40;99.90
8666;DHT22;4370;48.916;8.380;2023-11-21T08:38:18;8.60;99.90
8666;DHT22;4370;48.916;8.380;2023-11-21T08:40:45;8.20;99.90
8666;DHT22;4370;48.916;8.380;2023-11-21T08:43:12;8.60;99.90
8666;DHT22;4370;48.916;8.380;2023-11-21T08:45:42;8.40;99.90
8666;DHT22;4370;48.916;8.380;2023-11-21T08:48:07;8.70;99.90
8666;DHT22;4370;48.916;8.380;2023-11-21T08:50:34;8.40;99.90
8666;DHT22;4370;48.916;8.380;2023-11-21T08:53:03;8.50;99.90
8666;DHT22;4370;48.916;8.380;2023-11-21T09:05:14;8.70;99.90
8666;DHT22;4370;48.916;8.380;2023-11-21T09:07:42;8.80;99.90
8666;DHT22;4370;48.916;8.380;2023-11-21T09:10:09;8.40;99.90
8666;DHT22;4370;48.916;8.380;2023-11-21T09:15:04;8.60;99.90
8666;DHT22;4370;48.916;8.380;2023-11-21T09:19:57;8.80;99.90
8666;DHT22;4370;48.916;8.380;2023-11-21T09:24:51;9.10;99.90
8666;DHT22;4370;48.916;8.380;2023-11-21T09:27:19;8.60;99.90
8666;DHT22;4370;48.916;8.380;2023-11-21T09:29:47;8.70;99.90
8666;DHT22;4370;48.916;8.380;2023-11-21T09:32:14;8.60;99.90
8666;DHT22;4370;48.916;8.380;2023-11-21T09:34:45;8.30;99.90
8666;DHT22;4370;48.916;8.380;2023-11-21T09:37:10;8.70;99.90
8666;DHT22;4370;48.916;8.380;2023-11-21T09:39:36;8.80;99.90
8666;DHT22;4370;48.916;8.380;2023-11-21T09:42:28;8.50;99.90
8666;DHT22;4370;48.916;8.380;2023-11-21T09:45:03;8.60;99.90
8666;DHT22;4370;48.916;8.380;2023-11-21T09:47:30;8.50;99.90
8666;DHT22;4370;48.916;8.380;2023-11-21T09:50:00;8.80;99.90
8666;DHT22;4370;48.916;8.380;2023-11-21T09:52:27;8.50;99.90
8666;DHT22;4370;48.916;8.380;2023-11-21T09:54:54;8.70;99.90
8666;DHT22;4370;48.916;8.380;2023-11-21T09:57:21;8.60;99.90
8666;DHT22;4370;48.916;8.380;2023-11-21T09:59:52;8.80;99.90
8666;DHT22;4370;48.916;8.380;2023-11-21T10:02:27;8.90;99.90
8666;DHT22;4370;48.916;8.380;2023-11-21T10:04:55;8.90;99.90
8666;DHT22;4370;48.916;8.380;2023-11-21T10:09:47;8.80;99.90
8666;DHT22;4370;48.916;8.380;2023-11-21T10:12:15;8.90;99.90
8666;DHT22;4370;48.916;8.380;2023-11-21T10:14:41;8.80;99.90
8666;DHT22;4370;48.916;8.380;2023-11-21T10:17:08;9.20;99.90
8666;DHT22;4370;48.916;8.380;2023-11-21T10:19:38;9.20;99.90
8666;DHT22;4370;48.916;8.380;2023-11-21T10:22:05;8.90;99.90
8666;DHT22;4370;48.916;8.380;2023-11-21T10:26:59;8.90;99.90
8666;DHT22;4370;48.916;8.380;2023-11-21T10:29:30;9.10;99.90
8666;DHT22;4370;48.916;8.380;2023-11-21T10:31:56;8.90;99.90
8666;DHT22;4370;48.916;8.380;2023-11-21T10:34:24;9.20;99.90
8666;DHT22;4370;48.916;8.380;2023-11-21T10:36:50;9.40;99.90
8666;DHT22;4370;48.916;8.380;2023-11-21T10:39:20;8.90;99.90
8666;DHT22;4370;48.916;8.380;2023-11-21T10:41:49;9.20;99.90
8666;DHT22;4370;48.916;8.380;2023-11-21T10:44:17;9.20;99.90
8666;DHT22;4370;48.916;8.380;2023-11-21T10:46:53;9.40;99.90
8666;DHT22;4370;48.916;8.380;2023-11-21T10:49:26;9.30;99.90
8666;DHT22;4370;48.916;8.380;2023-11-21T10:51:56;9.30;99.90
8666;DHT22;4370;48.916;8.380;2023-11-21T10:54:29;9.00;99.90
8666;DHT22;4370;48.916;8.380;2023-11-21T10:56:59;9.80;99.90
8666;DHT22;4370;48.916;8.380;2023-11-21T10:59:30;9.30;99.90
8666;DHT22;4370;48.916;8.380;2023-11-21T11:01:57;9.30;99.90
8666;DHT22;4370;48.916;8.380;2023-11-21T11:04:28;10.20;99.90
8666;DHT22;4370;48.916;8.380;2023-11-21T11:06:57;9.20;99.90
8666;DHT22;4370;48.916;8.380;2023-11-21T11:09:26;9.30;99.90
8666;DHT22;4370;48.916;8.380;2023-11-21T11:11:53;9.00;99.90
8666;DHT22;4370;48.916;8.380;2023-11-21T11:14:20;9.40;99.90
8666;DHT22;4370;48.916;8.380;2023-11-21T11:16:47;9.40;99.90
8666;DHT22;4370;48.916;8.380;2023-11-21T11:19:15;9.30;99.90
8666;DHT22;4370;48.916;8.380;2023-11-21T11:24:47;9.60;99.90
8666;DHT22;4370;48.916;8.380;2023-11-21T11:27:39;9.30;99.90
8666;DHT22;4370;48.916;8.380;2023-11-21T11:33:14;8.90;99.90
8666;DHT22;4370;48.916;8.380;2023-11-21T11:38:32;9.20;99.90
8666;DHT22;4370;48.916;8.380;2023-11-21T11:41:05;9.00;99.90
8666;DHT22;4370;48.916;8.380;2023-11-21T11:43:35;9.30;99.90
8666;DHT22;4370;48.916;8.380;2023-11-21T11:46:17;9.30;99.90
8666;DHT22;4370;48.916;8.380;2023-11-21T11:48:44;9.40;99.90
8666;DHT22;4370;48.916;8.380;2023-11-21T11:51:14;9.10;99.90
8666;DHT22;4370;48.916;8.380;2023-11-21T11:53:45;9.40;99.90
8666;DHT22;4370;48.916;8.380;2023-11-21T11:58:54;9.40;99.90
8666;DHT22;4370;48.916;8.380;2023-11-21T12:01:20;9.10;99.90
8666;DHT22;4370;48.916;8.380;2023-11-21T12:06:42;9.10;99.90
8666;DHT22;4370;48.916;8.380;2023-11-21T12:09:23;9.30;99.90
8666;DHT22;4370;48.916;8.380;2023-11-21T12:11:53;9.20;99.90
8666;DHT22;4370;48.916;8.380;2023-11-21T12:14:30;9.40;99.90
8666;DHT22;4370;48.916;8.380;2023-11-21T12:17:00;9.30;99.90
8666;DHT22;4370;48.916;8.380;2023-11-21T12:19:30;9.40;99.90
8666;DHT22;4370;48.916;8.380;2023-11-21T12:24:35;9.10;99.90
8666;DHT22;4370;48.916;8.380;2023-11-21T12:27:02;9.50;99.90
8666;DHT22;4370;48.916;8.380;2023-11-21T12:31:58;9.40;99.90
8666;DHT22;4370;48.916;8.380;2023-11-21T12:34:31;9.40;99.90
8666;DHT22;4370;48.916;8.380;2023-11-21T12:36:57;9.70;99.90
8666;DHT22;4370;48.916;8.380;2023-11-21T12:39:24;9.40;99.90
8666;DHT22;4370;48.916;8.380;2023-11-21T12:41:50;9.70;99.90
8666;DHT22;4370;48.916;8.380;2023-11-21T12:44:17;9.60;99.90
8666;DHT22;4370;48.916;8.380;2023-11-21T12:46:44;9.60;99.90
8666;DHT22;4370;48.916;8.380;2023-11-21T12:49:14;9.20;99.90
8666;DHT22;4370;48.916;8.380;2023-11-21T12:51:45;9.50;99.90
8666;DHT22;4370;48.916;8.380;2023-11-21T12:54:15;9.40;99.90
8666;DHT22;4370;48.916;8.380;2023-11-21T12:56:41;9.30;99.90
8666;DHT22;4370;48.916;8.380;2023-11-21T12:59:08;10.20;99.90
8666;DHT22;4370;48.916;8.380;2023-11-21T13:01:42;9.80;99.90
8666;DHT22;4370;48.916;8.380;2023-11-21T13:04:08;9.50;99.90
8666;DHT22;4370;48.916;8.380;2023-11-21T13:06:38;9.80;99.90
8666;DHT22;4370;48.916;8.380;2023-11-21T13:09:07;9.60;99.90
8666;DHT22;4370;48.916;8.380;2023-11-21T13:11:36;9.70;99.90
8666;DHT22;4370;48.916;8.380;2023-11-21T13:14:04;9.60;99.90
8666;DHT22;4370;48.916;8.380;2023-11-21T13:16:30;9.30;99.90
8666;DHT22;4370;48.916;8.380;2023-11-21T13:18:57;9.70;99.90
8666;DHT22;4370;48.916;8.380;2023-11-21T13:23:50;9.40;99.90
8666;DHT22;4370;48.916;8.380;2023-11-21T13:26:18;9.40;99.90
8666;DHT22;4370;48.916;8.380;2023-11-21T13:28:47;9.70;99.90
8666;DHT22;4370;48.916;8.380;2023-11-21T13:31:24;9.60;99.90
8666;DHT22;4370;48.916;8.380;2023-11-21T13:33:54;9.70;99.90
8666;DHT22;4370;48.916;8.380;2023-11-21T13:36:25;9.70;99.90
8666;DHT22;4370;48.916;8.380;2023-11-21T13:38:51;9.80;99.90
8666;DHT22;4370;48.916;8.380;2023-11-21T13:41:21;10.70;99.90
8666;DHT22;4370;48.916;8.380;2023-11-21T13:46:52;9.60;99.90
8666;DHT22;4370;48.916;8.380;2023-11-21T13:49:37;9.90;99.90
8666;DHT22;4370;48.916;8.380;2023-11-21T13:52:09;10.00;99.90
8666;DHT22;4370;48.916;8.380;2023-11-21T13:54:42;10.00;99.90
8666;DHT22;4370;48.916;8.380;2023-11-21T13:57:09;10.10;99.90
8666;DHT22;4370;48.916;8.380;2023-11-21T13:59:39;9.70;99.90
8666;DHT22;4370;48.916;8.380;2023-11-21T14:02:07;10.00;99.90
8666;DHT22;4370;48.916;8.380;2023-11-21T14:04:45;10.00;99.90
8666;DHT22;4370;48.916;8.380;2023-11-21T14:07:23;10.00;99.90
8666;DHT22;4370;48.916;8.380;2023-11-21T14:10:12;10.10;99.90
8666;DHT22;4370;48.916;8.380;2023-11-21T14:15:08;10.00;99.90
8666;DHT22;4370;48.916;8.380;2023-11-21T14:17:35;10.10;99.90
8666;DHT22;4370;48.916;8.380;2023-11-21T14:20:04;10.10;99.90
8666;DHT22;4370;48.916;8.380;2023-11-21T14:22:33;10.20;99.90
8666;DHT22;4370;48.916;8.380;2023-11-21T14:24:59;10.00;99.90
8666;DHT22;4370;48.916;8.380;2023-11-21T14:27:29;10.50;99.90
8666;DHT22;4370;48.916;8.380;2023-11-21T14:30:00;10.30;99.90
8666;DHT22;4370;48.916;8.380;2023-11-21T14:37:21;10.30;99.90
8666;DHT22;4370;48.916;8.380;2023-11-21T14:39:48;9.90;99.90
8666;DHT22;4370;48.916;8.380;2023-11-21T14:42:16;9.90;99.90
8666;DHT22;4370;48.916;8.380;2023-11-21T14:44:46;9.90;99.90
8666;DHT22;4370;48.916;8.380;2023-11-21T14:49:43;9.90;99.90
8666;DHT22;4370;48.916;8.380;2023-11-21T14:54:59;10.00;99.90
8666;DHT22;4370;48.916;8.380;2023-11-21T15:00:16;10.00;99.90
8666;DHT22;4370;48.916;8.380;2023-11-21T15:03:04;10.10;99.90
8666;DHT22;4370;48.916;8.380;2023-11-21T15:05:31;10.10;99.90
8666;DHT22;4370;48.916;8.380;2023-11-21T15:07:57;10.00;99.90
8666;DHT22;4370;48.916;8.380;2023-11-21T15:10:37;10.10;99.90
8666;DHT22;4370;48.916;8.380;2023-11-21T15:15:38;9.60;99.90
8666;DHT22;4370;48.916;8.380;2023-11-21T15:20:35;10.00;99.90
8666;DHT22;4370;48.916;8.380;2023-11-21T15:23:00;10.00;99.90
8666;DHT22;4370;48.916;8.380;2023-11-21T15:25:31;10.20;99.90
8666;DHT22;4370;48.916;8.380;2023-11-21T15:27:59;10.90;99.90
8666;DHT22;4370;48.916;8.380;2023-11-21T15:30:25;9.60;99.90
8666;DHT22;4370;48.916;8.380;2023-11-21T15:35:21;9.60;99.90
8666;DHT22;4370;48.916;8.380;2023-11-21T15:37:59;9.70;99.90
8666;DHT22;4370;48.916;8.380;2023-11-21T15:40:25;9.80;99.90
8666;DHT22;4370;48.916;8.380;2023-11-21T15:42:51;9.80;99.90
8666;DHT22;4370;48.916;8.380;2023-11-21T15:45:17;9.60;99.90
8666;DHT22;4370;48.916;8.380;2023-11-21T15:50:12;9.80;99.90
8666;DHT22;4370;48.916;8.380;2023-11-21T15:52:39;9.70;99.90
8666;DHT22;4370;48.916;8.380;2023-11-21T15:55:08;9.50;99.90
8666;DHT22;4370;48.916;8.380;2023-11-21T15:57:36;9.20;99.90
8666;DHT22;4370;48.916;8.380;2023-11-21T16:00:01;9.60;99.90
8666;DHT22;4370;48.916;8.380;2023-11-21T16:02:35;9.40;99.90
8666;DHT22;4370;48.916;8.380;2023-11-21T16:05:01;10.00;99.90
8666;DHT22;4370;48.916;8.380;2023-11-21T16:09:57;9.30;99.90
8666;DHT22;4370;48.916;8.380;2023-11-21T16:14:50;9.40;99.90
8666;DHT22;4370;48.916;8.380;2023-11-21T16:17:16;8.80;99.90
8666;DHT22;4370;48.916;8.380;2023-11-21T16:19:48;9.10;99.90
8666;DHT22;4370;48.916;8.380;2023-11-21T16:22:13;9.10;99.90
8666;DHT22;4370;48.916;8.380;2023-11-21T16:24:41;9.20;99.90
8666;DHT22;4370;48.916;8.380;2023-11-21T16:27:07;9.10;99.90
8666;DHT22;4370;48.916;8.380;2023-11-21T16:29:41;8.90;99.90
8666;DHT22;4370;48.916;8.380;2023-11-21T16:32:07;8.70;99.90
8666;DHT22;4370;48.916;8.380;2023-11-21T16:34:37;8.70;99.90
8666;DHT22;4370;48.916;8.380;2023-11-21T16:37:06;8.70;99.90
8666;DHT22;4370;48.916;8.380;2023-11-21T16:39:35;8.40;99.90
8666;DHT22;4370;48.916;8.380;2023-11-21T16:42:07;8.50;99.90
8666;DHT22;4370;48.916;8.380;2023-11-21T16:44:34;8.30;99.90
8666;DHT22;4370;48.916;8.380;2023-11-21T16:47:01;8.10;99.90
8666;DHT22;4370;48.916;8.380;2023-11-21T16:49:34;7.80;99.90
8666;DHT22;4370;48.916;8.380;2023-11-21T16:52:07;7.90;99.90
8666;DHT22;4370;48.916;8.380;2023-11-21T16:57:12;7.80;99.90
8666;DHT22;4370;48.916;8.380;2023-11-21T16:59:39;7.80;99.90
8666;DHT22;4370;48.916;8.380;2023-11-21T17:02:08;7.80;99.90
8666;DHT22;4370;48.916;8.380;2023-11-21T17:04:39;7.40;99.90
8666;DHT22;4370;48.916;8.380;2023-11-21T17:07:08;7.50;99.90
8666;DHT22;4370;48.916;8.380;2023-11-21T17:09:39;7.80;99.90
8666;DHT22;4370;48.916;8.380;2023-11-21T17:14:31;7.10;99.90
8666;DHT22;4370;48.916;8.380;2023-11-21T17:16:58;6.80;99.90
8666;DHT22;4370;48.916;8.380;2023-11-21T17:19:26;7.00;99.90
8666;DHT22;4370;48.916;8.380;2023-11-21T17:21:59;6.80;99.90
8666;DHT22;4370;48.916;8.380;2023-11-21T17:24:26;6.90;99.90
8666;DHT22;4370;48.916;8.380;2023-11-21T17:26:55;7.30;99.90
8666;DHT22;4370;48.916;8.380;2023-11-21T17:29:26;7.20;99.90
8666;DHT22;4370;48.916;8.380;2023-11-21T17:31:57;6.90;99.90
8666;DHT22;4370;48.916;8.380;2023-11-21T17:34:24;6.90;99.90
8666;DHT22;4370;48.916;8.380;2023-11-21T17:36:51;7.20;99.90
8666;DHT22;4370;48.916;8.380;2023-11-21T17:39:23;7.40;99.90
8666;DHT22;4370;48.916;8.380;2023-11-21T17:41:49;7.20;99.90
8666;DHT22;4370;48.916;8.380;2023-11-21T17:44:18;7.40;99.90
8666;DHT22;4370;48.916;8.380;2023-11-21T17:46:44;7.40;99.90
8666;DHT22;4370;48.916;8.380;2023-11-21T17:49:11;7.40;99.90
8666;DHT22;4370;48.916;8.380;2023-11-21T17:51:41;7.20;99.90
8666;DHT22;4370;48.916;8.380;2023-11-21T17:54:08;7.20;99.90
8666;DHT22;4370;48.916;8.380;2023-11-21T17:56:47;7.20;99.90
8666;DHT22;4370;48.916;8.380;2023-11-21T18:00:00;7.10;99.90
8666;DHT22;4370;48.916;8.380;2023-11-21T18:02:02;7.20;99.90
8666;DHT22;4370;48.916;8.380;2023-11-21T18:06:55;7.40;99.90
8666;DHT22;4370;48.916;8.380;2023-11-21T18:09:36;7.30;99.90
8666;DHT22;4370;48.916;8.380;2023-11-21T18:12:03;7.40;99.90
8666;DHT22;4370;48.916;8.380;2023-11-21T18:14:31;7.50;99.90
8666;DHT22;4370;48.916;8.380;2023-11-21T18:19:35;7.60;99.90
8666;DHT22;4370;48.916;8.380;2023-11-21T18:24:28;7.60;99.90
8666;DHT22;4370;48.916;8.380;2023-11-21T18:27:14;7.80;99.90
8666;DHT22;4370;48.916;8.380;2023-11-21T18:29:40;7.70;99.90
8666;DHT22;4370;48.916;8.380;2023-11-21T18:32:06;7.40;99.90
8666;DHT22;4370;48.916;8.380;2023-11-21T18:34:40;7.50;99.90
8666;DHT22;4370;48.916;8.380;2023-11-21T18:39:43;7.50;99.90
8666;DHT22;4370;48.916;8.380;2023-11-21T18:42:09;7.50;99.90
8666;DHT22;4370;48.916;8.380;2023-11-21T18:44:35;7.60;99.90
8666;DHT22;4370;48.916;8.380;2023-11-21T18:47:02;7.90;99.90
8666;DHT22;4370;48.916;8.380;2023-11-21T18:49:28;7.50;99.90
8666;DHT22;4370;48.916;8.380;2023-11-21T18:51:55;7.90;99.90
8666;DHT22;4370;48.916;8.380;2023-11-21T18:54:23;7.50;99.90
8666;DHT22;4370;48.916;8.380;2023-11-21T18:56:53;7.70;99.90
8666;DHT22;4370;48.916;8.380;2023-11-21T18:59:19;8.60;99.90
8666;DHT22;4370;48.916;8.380;2023-11-21T19:01:49;7.70;99.90
8666;DHT22;4370;48.916;8.380;2023-11-21T19:04:17;7.80;99.90
8666;DHT22;4370;48.916;8.380;2023-11-21T19:06:46;7.90;99.90
8666;DHT22;4370;48.916;8.380;2023-11-21T19:09:18;7.70;99.90
8666;DHT22;4370;48.916;8.380;2023-11-21T19:11:44;8.20;99.90
8666;DHT22;4370;48.916;8.380;2023-11-21T19:16:37;8.00;99.90
8666;DHT22;4370;48.916;8.380;2023-11-21T19:19:03;7.90;99.90
8666;DHT22;4370;48.916;8.380;2023-11-21T19:23:57;7.50;99.90
8666;DHT22;4370;48.916;8.380;2023-11-21T19:26:26;7.80;99.90
8666;DHT22;4370;48.916;8.380;2023-11-21T19:28:52;8.00;99.90
8666;DHT22;4370;48.916;8.380;2023-11-21T19:31:19;7.70;99.90
8666;DHT22;4370;48.916;8.380;2023-11-21T19:33:46;8.70;99.90
8666;DHT22;4370;48.916;8.380;2023-11-21T19:36:17;8.10;99.90
8666;DHT22;4370;48.916;8.380;2023-11-21T19:38:45;8.10;99.90
8666;DHT22;4370;48.916;8.380;2023-11-21T19:41:20;8.10;99.90
8666;DHT22;4370;48.916;8.380;2023-11-21T19:44:10;7.80;99.90
8666;DHT22;4370;48.916;8.380;2023-11-21T19:46:45;8.00;99.90
8666;DHT22;4370;48.916;8.380;2023-11-21T19:49:11;8.20;99.90
8666;DHT22;4370;48.916;8.380;2023-11-21T19:51:40;7.90;99.90
8666;DHT22;4370;48.916;8.380;2023-11-21T19:54:08;8.50;99.90
8666;DHT22;4370;48.916;8.380;2023-11-21T19:56:38;8.10;99.90
8666;DHT22;4370;48.916;8.380;2023-11-21T19:59:03;8.10;99.90
8666;DHT22;4370;48.916;8.380;2023-11-21T20:01:32;8.30;99.90
8666;DHT22;4370;48.916;8.380;2023-11-21T20:04:05;7.90;99.90
8666;DHT22;4370;48.916;8.380;2023-11-21T20:06:50;8.10;99.90
8666;DHT22;4370;48.916;8.380;2023-11-21T20:10:03;8.00;99.90
8666;DHT22;4370;48.916;8.380;2023-11-21T20:12:18;8.10;99.90
8666;DHT22;4370;48.916;8.380;2023-11-21T20:14:50;7.90;99.90
8666;DHT22;4370;48.916;8.380;2023-11-21T20:19:52;8.20;99.90
8666;DHT22;4370;48.916;8.380;2023-11-21T20:22:20;7.80;99.90
8666;DHT22;4370;48.916;8.380;2023-11-21T20:24:48;8.00;99.90
8666;DHT22;4370;48.916;8.380;2023-11-21T20:27:24;8.10;99.90
8666;DHT22;4370;48.916;8.380;2023-11-21T20:29:51;8.20;99.90
8666;DHT22;4370;48.916;8.380;2023-11-21T20:32:17;8.20;99.90
8666;DHT22;4370;48.916;8.380;2023-11-21T20:34:57;8.00;99.90